createdAt,value
2019-03-20T00:00:30.727Z,100.92
2019-03-20T00:03:06.962Z,89.37
2019-03-20T00:05:43.200Z,80.07
2019-03-20T00:08:18.993Z,68.35
2019-03-20T00:10:54.766Z,70.87
2019-03-20T00:13:30.611Z,68.95
2019-03-20T00:16:07.129Z,66.62
2019-03-20T00:18:42.916Z,73.62
2019-03-20T00:21:18.784Z,65.75
2019-03-20T00:23:55.239Z,68.55
2019-03-20T00:26:30.988Z,70.95
2019-03-20T00:29:07.572Z,71.65
2019-03-20T00:31:43.822Z,72.70
2019-03-20T00:34:19.692Z,83.65
2019-03-20T00:36:55.542Z,77.15
2019-03-20T00:39:31.602Z,80.70
2019-03-20T00:42:07.448Z,77.58
2019-03-20T00:44:44.424Z,68.33
2019-03-20T00:47:20.297Z,69.60
2019-03-20T00:49:58.134Z,64.20
2019-03-20T00:52:34.245Z,66.55
2019-03-20T00:55:11.288Z,68.92
2019-03-20T00:57:47.755Z,64.37
2019-03-20T01:00:27.128Z,65.65
2019-03-20T01:03:03.356Z,62.83
2019-03-20T01:05:39.158Z,63.87
2019-03-20T01:08:14.942Z,59.75
2019-03-20T01:10:50.752Z,58.33
2019-03-20T01:13:26.604Z,56.83
2019-03-20T01:16:02.353Z,54.42
2019-03-20T01:18:38.314Z,52.53
2019-03-20T01:21:14.175Z,49.08
2019-03-20T01:23:50.016Z,52.33
2019-03-20T01:26:25.886Z,46.88
2019-03-20T01:29:01.726Z,48.92
2019-03-20T01:31:37.584Z,56.33
2019-03-20T01:34:13.440Z,59.03
2019-03-20T01:36:50.422Z,66.28
2019-03-20T01:39:26.781Z,56.37
2019-03-20T01:42:05.218Z,56.85
2019-03-20T01:44:42.081Z,60.00
2019-03-20T01:47:17.941Z,68.28
2019-03-20T01:49:53.775Z,60.20
2019-03-20T01:52:29.532Z,51.77
2019-03-20T01:55:07.802Z,54.25
2019-03-20T01:57:43.569Z,57.00
2019-03-20T02:00:19.682Z,54.53
2019-03-20T02:02:55.618Z,53.40
2019-03-20T02:05:36.393Z,55.05
2019-03-20T02:08:09.430Z,59.65
2019-03-20T02:10:45.233Z,65.47
2019-03-20T02:13:21.072Z,70.67
2019-03-20T02:15:57.201Z,60.25
2019-03-20T02:18:34.014Z,65.08
2019-03-20T02:21:09.863Z,63.48
2019-03-20T02:23:45.615Z,63.00
2019-03-20T02:26:21.367Z,72.25
2019-03-20T02:28:57.426Z,71.42
2019-03-20T02:31:33.290Z,76.12
2019-03-20T02:34:09.301Z,74.30
2019-03-20T02:36:45.103Z,64.40
2019-03-20T02:39:21.260Z,67.53
2019-03-20T02:41:57.119Z,78.37
2019-03-20T02:44:32.958Z,75.35
2019-03-20T02:47:08.818Z,73.22
2019-03-20T02:49:44.700Z,70.22
2019-03-20T02:52:20.525Z,87.12
2019-03-20T02:54:56.592Z,82.57
2019-03-20T02:57:32.433Z,86.28
2019-03-20T03:00:11.373Z,78.67
2019-03-20T03:02:47.438Z,78.37
2019-03-20T03:05:23.350Z,85.10
2019-03-20T03:07:59.242Z,83.42
2019-03-20T03:10:35.086Z,81.97
2019-03-20T03:13:10.940Z,84.20
2019-03-20T03:15:46.790Z,75.05
2019-03-20T03:18:22.763Z,68.15
2019-03-20T03:20:58.611Z,65.30
2019-03-20T03:23:35.078Z,72.75
2019-03-20T03:26:10.953Z,83.30
2019-03-20T03:28:46.997Z,68.83
2019-03-20T03:31:23.057Z,63.00
2019-03-20T03:33:58.778Z,66.17
2019-03-20T03:36:34.855Z,71.97
2019-03-20T03:39:11.746Z,64.32
2019-03-20T03:41:47.590Z,73.85
2019-03-20T03:44:23.335Z,67.92
2019-03-20T03:46:59.202Z,69.22
2019-03-20T03:49:34.943Z,65.75
2019-03-20T03:52:10.816Z,70.90
2019-03-20T03:54:46.649Z,64.75
2019-03-20T03:57:22.516Z,64.95
2019-03-20T03:59:58.462Z,68.85
2019-03-20T04:02:34.930Z,60.25
2019-03-20T04:05:11.299Z,66.05
2019-03-20T04:07:47.278Z,65.28
2019-03-20T04:10:23.010Z,73.07
2019-03-20T04:12:58.860Z,66.15
2019-03-20T04:15:36.400Z,72.95
2019-03-20T04:18:12.414Z,72.35
2019-03-20T04:20:48.273Z,75.12
2019-03-20T04:23:24.124Z,76.75
2019-03-20T04:26:00.849Z,76.35
2019-03-20T04:28:36.907Z,86.75
2019-03-20T04:31:14.339Z,86.32
2019-03-20T04:33:50.129Z,79.27
2019-03-20T04:36:26.361Z,82.78
2019-03-20T04:39:02.218Z,84.15
2019-03-20T04:41:39.207Z,84.80
2019-03-20T04:44:15.046Z,89.05
2019-03-20T04:46:52.395Z,88.12
2019-03-20T04:49:28.208Z,83.65
2019-03-20T04:52:04.260Z,76.40
2019-03-20T04:54:40.101Z,85.70
2019-03-20T04:57:15.959Z,84.22
2019-03-20T04:59:51.818Z,75.08
2019-03-20T05:02:27.664Z,172.22
2019-03-20T05:05:03.516Z,133.97
2019-03-20T05:07:39.684Z,109.45
2019-03-20T05:10:16.567Z,78.17
2019-03-20T05:12:52.711Z,71.70
2019-03-20T05:15:28.573Z,68.30
2019-03-20T05:18:04.322Z,68.22
2019-03-20T05:20:40.181Z,73.35
2019-03-20T05:23:16.245Z,70.40
2019-03-20T05:25:52.867Z,64.58
2019-03-20T05:28:28.767Z,67.78
2019-03-20T05:31:04.621Z,77.35
2019-03-20T05:33:40.479Z,62.90
2019-03-20T05:36:17.342Z,61.02
2019-03-20T05:38:53.207Z,72.67
2019-03-20T05:41:29.163Z,64.42
2019-03-20T05:44:05.022Z,62.70
2019-03-20T05:46:41.029Z,68.33
2019-03-20T05:49:17.041Z,71.02
2019-03-20T05:51:52.880Z,61.63
2019-03-20T05:54:28.674Z,62.95
2019-03-20T05:57:04.520Z,59.08
2019-03-20T05:59:40.326Z,70.28
2019-03-20T06:02:16.307Z,64.95
2019-03-20T06:04:53.181Z,62.33
2019-03-20T06:07:29.039Z,66.87
2019-03-20T06:10:09.077Z,58.50
2019-03-20T06:12:44.941Z,70.90
2019-03-20T06:15:20.744Z,68.37
2019-03-20T06:17:56.644Z,69.72
2019-03-20T06:20:33.818Z,58.25
2019-03-20T06:23:11.238Z,64.10
2019-03-20T06:25:47.177Z,59.83
2019-03-20T06:28:23.039Z,57.00
2019-03-20T06:30:58.881Z,59.10
2019-03-20T06:33:34.746Z,59.63
2019-03-20T06:36:10.590Z,56.33
2019-03-20T06:38:46.443Z,54.27
2019-03-20T06:41:22.305Z,58.38
2019-03-20T06:43:58.562Z,54.40
2019-03-20T06:46:34.472Z,62.00
2019-03-20T06:49:10.373Z,67.87
2019-03-20T06:51:46.339Z,65.57
2019-03-20T06:54:22.552Z,52.20
2019-03-20T06:56:58.342Z,50.70
2019-03-20T06:59:37.352Z,42.90
2019-03-20T07:02:14.145Z,40.17
2019-03-20T07:05:02.095Z,39.35
2019-03-20T07:07:43.958Z,40.43
2019-03-20T07:10:19.086Z,46.03
2019-03-20T07:12:54.869Z,41.70
2019-03-20T07:15:30.730Z,43.65
2019-03-20T07:18:06.587Z,45.23
2019-03-20T07:20:42.432Z,43.65
2019-03-20T07:23:18.326Z,33.48
2019-03-20T07:25:54.251Z,38.45
2019-03-20T07:28:30.095Z,39.98
2019-03-20T07:31:14.845Z,31.20
2019-03-20T07:33:43.745Z,37.67
2019-03-20T07:36:19.494Z,35.58
2019-03-20T07:38:55.354Z,31.27
2019-03-20T07:41:31.111Z,29.45
2019-03-20T07:44:07.056Z,31.85
2019-03-20T07:46:42.925Z,32.20
2019-03-20T07:49:19.082Z,26.23
2019-03-20T07:51:54.943Z,26.35
2019-03-20T07:54:30.792Z,26.45
2019-03-20T07:57:06.638Z,26.07
2019-03-20T07:59:42.569Z,26.07
2019-03-20T08:02:18.352Z,24.98
2019-03-20T08:04:55.228Z,22.65
2019-03-20T08:07:31.084Z,24.20
2019-03-20T08:10:15.233Z,24.37
2019-03-20T08:12:51.342Z,22.90
2019-03-20T08:15:27.242Z,24.02
2019-03-20T08:18:02.989Z,14.90
2019-03-20T08:20:38.859Z,22.67
2019-03-20T08:23:14.701Z,21.35
2019-03-20T08:25:50.877Z,23.62
2019-03-20T08:28:26.722Z,22.07
2019-03-20T08:31:02.468Z,25.27
2019-03-20T08:33:38.691Z,20.65
2019-03-20T08:36:14.829Z,24.90
2019-03-20T08:38:50.655Z,24.50
2019-03-20T08:41:26.394Z,26.30
2019-03-20T08:44:02.143Z,22.50
2019-03-20T08:46:39.138Z,20.30
2019-03-20T08:49:15.095Z,21.90
2019-03-20T08:51:50.941Z,20.97
2019-03-20T08:54:26.805Z,21.70
2019-03-20T08:57:02.655Z,23.55
2019-03-20T08:59:39.125Z,14.28
2019-03-20T09:02:14.980Z,21.50
2019-03-20T09:04:51.030Z,18.23
2019-03-20T09:07:26.887Z,17.73
2019-03-20T09:10:02.685Z,24.07
2019-03-20T09:12:38.794Z,18.12
2019-03-20T09:15:15.952Z,19.90
2019-03-20T09:17:51.835Z,18.87
2019-03-20T09:20:27.993Z,22.77
2019-03-20T09:23:03.849Z,20.43
2019-03-20T09:25:39.799Z,14.40
2019-03-20T09:28:17.206Z,13.95
2019-03-20T09:30:53.059Z,14.90
2019-03-20T09:33:29.068Z,17.98
2019-03-20T09:36:05.033Z,16.23
2019-03-20T09:38:43.742Z,11.10
2019-03-20T09:41:18.413Z,18.55
2019-03-20T09:43:54.268Z,16.45
2019-03-20T09:46:31.711Z,19.00
2019-03-20T09:49:07.927Z,19.55
2019-03-20T09:51:44.073Z,12.07
2019-03-20T09:54:19.835Z,17.92
2019-03-20T09:56:55.695Z,14.58
2019-03-20T09:59:31.549Z,22.73
2019-03-20T10:02:07.399Z,16.12
2019-03-20T10:04:43.139Z,18.82
2019-03-20T10:07:19.000Z,15.88
2019-03-20T10:09:54.753Z,17.37
2019-03-20T10:12:31.741Z,21.05
2019-03-20T10:15:16.599Z,18.15
2019-03-20T10:17:52.558Z,15.78
2019-03-20T10:20:28.708Z,15.50
2019-03-20T10:23:04.566Z,13.28
2019-03-20T10:25:44.477Z,22.02
2019-03-20T10:28:18.112Z,16.77
2019-03-20T10:30:53.891Z,17.67
2019-03-20T10:33:29.788Z,17.67
2019-03-20T10:36:05.582Z,18.20
2019-03-20T10:38:41.461Z,14.98
2019-03-20T10:41:17.296Z,15.30
2019-03-20T10:43:53.140Z,16.75
2019-03-20T10:46:29.408Z,17.15
2019-03-20T10:49:05.294Z,15.80
2019-03-20T10:51:41.110Z,15.45
2019-03-20T10:54:17.572Z,14.50
2019-03-20T10:56:53.648Z,17.05
2019-03-20T10:59:29.489Z,14.55
2019-03-20T11:02:05.561Z,16.37
2019-03-20T11:04:41.623Z,14.75
2019-03-20T11:07:17.463Z,16.77
2019-03-20T11:09:53.321Z,16.65
2019-03-20T11:12:29.175Z,15.38
2019-03-20T11:15:10.752Z,16.42
2019-03-20T11:17:46.875Z,24.32
2019-03-20T11:20:23.912Z,17.17
2019-03-20T11:22:59.655Z,13.53
2019-03-20T11:25:35.513Z,16.07
2019-03-20T11:28:11.673Z,20.23
2019-03-20T11:30:47.518Z,20.25
2019-03-20T11:33:23.375Z,17.77
2019-03-20T11:35:59.378Z,17.37
2019-03-20T11:38:35.396Z,15.28
2019-03-20T11:41:11.246Z,17.87
2019-03-20T11:43:46.999Z,13.45
2019-03-20T11:46:22.850Z,22.02
2019-03-20T11:48:59.830Z,14.73
2019-03-20T11:51:35.689Z,17.35
2019-03-20T11:54:11.906Z,17.17
2019-03-20T11:56:47.906Z,14.23
2019-03-20T11:59:23.968Z,21.07
2019-03-20T12:02:00.220Z,9.53
2019-03-20T12:04:36.083Z,18.55
2019-03-20T12:07:12.349Z,12.53
2019-03-20T12:09:48.498Z,11.10
2019-03-20T12:12:24.364Z,12.30
2019-03-20T12:15:01.753Z,12.90
2019-03-20T12:17:38.228Z,13.70
2019-03-20T12:20:21.665Z,10.20
2019-03-20T12:22:57.508Z,10.78
2019-03-20T12:25:37.826Z,11.40
2019-03-20T12:28:13.714Z,8.98
2019-03-20T12:30:49.578Z,13.40
2019-03-20T12:33:26.450Z,10.15
2019-03-20T12:36:02.307Z,12.28
2019-03-20T12:38:38.061Z,15.98
2019-03-20T12:41:14.226Z,12.70
2019-03-20T12:43:50.090Z,16.77
2019-03-20T12:46:40.673Z,11.20
2019-03-20T12:49:04.745Z,12.28
2019-03-20T12:51:40.604Z,11.40
2019-03-20T12:54:16.762Z,12.60
2019-03-20T12:56:53.756Z,15.38
2019-03-20T12:59:29.709Z,12.10
2019-03-20T13:02:08.162Z,12.53
2019-03-20T13:04:43.571Z,12.65
2019-03-20T13:07:19.412Z,18.90
2019-03-20T13:10:03.034Z,13.88
2019-03-20T13:12:32.975Z,11.00
2019-03-20T13:15:12.191Z,13.98
2019-03-20T13:17:49.393Z,10.13
2019-03-20T13:20:25.455Z,12.23
2019-03-20T13:23:13.378Z,14.28
2019-03-20T13:25:49.240Z,16.42
2019-03-20T13:28:25.245Z,16.70
2019-03-20T13:31:10.217Z,14.43
2019-03-20T13:33:46.122Z,15.68
2019-03-20T13:36:21.967Z,15.13
2019-03-20T13:38:57.823Z,14.70
2019-03-20T13:41:33.752Z,12.90
2019-03-20T13:44:09.642Z,12.82
2019-03-20T13:46:45.587Z,12.88
2019-03-20T13:49:21.544Z,11.05
2019-03-20T13:51:57.407Z,9.55
2019-03-20T13:54:33.262Z,13.00
2019-03-20T13:57:08.997Z,11.70
2019-03-20T13:59:45.072Z,12.18
2019-03-20T14:02:21.100Z,11.33
2019-03-20T14:04:57.450Z,13.62
2019-03-20T14:07:34.021Z,14.85
2019-03-20T14:10:24.939Z,13.37
2019-03-20T14:12:55.657Z,13.65
2019-03-20T14:15:32.854Z,8.93
2019-03-20T14:18:08.746Z,9.80
2019-03-20T14:20:44.601Z,12.15
2019-03-20T14:23:20.650Z,8.03
2019-03-20T14:25:56.497Z,8.30
2019-03-20T14:28:32.365Z,11.85
2019-03-20T14:31:08.428Z,14.68
2019-03-20T14:33:44.270Z,12.85
2019-03-20T14:36:20.131Z,11.80
2019-03-20T14:38:56.394Z,12.75
2019-03-20T14:41:32.141Z,10.25
2019-03-20T14:44:07.997Z,12.75
2019-03-20T14:46:43.845Z,18.27
2019-03-20T14:49:19.694Z,19.20
2019-03-20T14:51:55.567Z,26.07
2019-03-20T14:54:31.329Z,30.68
2019-03-20T14:57:08.188Z,23.60
2019-03-20T14:59:44.048Z,25.97
2019-03-20T15:02:19.910Z,53.13
2019-03-20T15:04:56.052Z,64.72
2019-03-20T15:07:31.906Z,16.02
2019-03-20T15:10:13.911Z,10.75
2019-03-20T15:12:50.450Z,28.00
2019-03-20T15:15:41.591Z,9.78
2019-03-20T15:18:17.808Z,10.27
2019-03-20T15:20:53.777Z,8.58
2019-03-20T15:23:29.759Z,11.50
2019-03-20T15:26:05.613Z,9.53
2019-03-20T15:28:41.845Z,11.43
2019-03-20T15:31:17.908Z,10.82
2019-03-20T15:33:53.692Z,8.70
2019-03-20T15:36:29.570Z,12.60
2019-03-20T15:39:07.504Z,12.78
2019-03-20T15:41:43.420Z,12.28
2019-03-20T15:44:19.677Z,13.80
2019-03-20T15:46:55.411Z,9.15
2019-03-20T15:49:31.784Z,14.55
2019-03-20T15:52:07.702Z,14.13
2019-03-20T15:54:43.541Z,11.03
2019-03-20T15:57:19.305Z,13.75
2019-03-20T15:59:55.159Z,10.48
2019-03-20T16:02:31.921Z,16.20
2019-03-20T16:05:08.656Z,11.70
2019-03-20T16:07:44.503Z,13.18
2019-03-20T16:10:22.671Z,10.60
2019-03-20T16:12:58.481Z,12.68
2019-03-20T16:15:35.030Z,15.28
2019-03-20T16:18:10.801Z,13.05
2019-03-20T16:20:46.673Z,16.65
2019-03-20T16:23:22.460Z,25.00
2019-03-20T16:25:58.491Z,23.47
2019-03-20T16:28:34.519Z,26.93
2019-03-20T16:31:10.923Z,42.48
2019-03-20T16:33:47.549Z,26.68
2019-03-20T16:36:23.966Z,23.22
2019-03-20T16:39:10.742Z,21.80
2019-03-20T16:42:16.548Z,12.78
2019-03-20T16:44:55.408Z,14.73
2019-03-20T16:47:31.201Z,22.10
2019-03-20T16:50:10.601Z,19.35
2019-03-20T16:52:49.946Z,22.98
2019-03-20T16:55:27.023Z,29.70
2019-03-20T16:58:02.868Z,33.90
2019-03-20T17:00:38.731Z,62.93
2019-03-20T17:03:14.584Z,38.33
2019-03-20T17:05:50.426Z,42.03
2019-03-20T17:08:26.278Z,41.15
2019-03-20T17:11:02.133Z,41.70
2019-03-20T17:13:38.032Z,54.35
2019-03-20T17:16:14.214Z,58.23
2019-03-20T17:18:50.119Z,61.70
2019-03-20T17:21:25.969Z,65.30
2019-03-20T17:24:01.831Z,84.67
2019-03-20T17:26:37.782Z,71.20
2019-03-20T17:29:13.805Z,58.78
2019-03-20T17:31:49.692Z,107.50
2019-03-20T17:34:25.541Z,118.37
2019-03-20T17:37:01.395Z,131.18
2019-03-20T17:39:37.264Z,897.17
2019-03-20T17:42:14.338Z,669.20
2019-03-20T17:44:50.296Z,519.75
2019-03-20T17:47:26.341Z,522.45
2019-03-20T17:50:02.305Z,389.75
2019-03-20T17:52:38.323Z,305.60
2019-03-20T17:55:14.214Z,209.90
2019-03-20T17:57:50.272Z,152.65
2019-03-20T18:00:37.479Z,150.68
2019-03-20T18:03:13.557Z,144.55
2019-03-20T18:05:49.421Z,136.25
2019-03-20T18:08:25.358Z,197.32
2019-03-20T18:11:01.204Z,135.43
2019-03-20T18:13:37.075Z,126.45
2019-03-20T18:16:13.139Z,115.50
2019-03-20T18:18:49.498Z,117.45
2019-03-20T18:21:25.333Z,143.02
2019-03-20T18:24:01.503Z,180.05
2019-03-20T18:26:37.325Z,181.78
2019-03-20T18:29:13.295Z,339.77
2019-03-20T18:31:49.130Z,398.87
2019-03-20T18:34:24.936Z,307.92
2019-03-20T18:37:00.991Z,557.38
2019-03-20T18:39:36.943Z,797.45
2019-03-20T18:42:12.806Z,1305.15
2019-03-20T18:44:48.767Z,1430.73
2019-03-20T18:47:24.610Z,1175.38
2019-03-20T18:50:00.420Z,1344.40
2019-03-20T18:52:36.240Z,1255.70
2019-03-20T18:55:13.806Z,1606.23
2019-03-20T18:57:49.911Z,1054.45
2019-03-20T19:00:29.777Z,930.40
2019-03-20T19:03:17.645Z,587.98
2019-03-20T19:05:59.230Z,509.25
2019-03-20T19:08:35.182Z,444.82
2019-03-20T19:11:11.040Z,389.82
2019-03-20T19:13:46.923Z,369.05
2019-03-20T19:16:22.765Z,302.45
2019-03-20T19:18:59.653Z,303.83
2019-03-20T19:21:35.615Z,246.18
2019-03-20T19:24:12.365Z,201.60
2019-03-20T19:26:48.230Z,235.70
2019-03-20T19:29:24.061Z,209.18
2019-03-20T19:31:59.945Z,159.43
2019-03-20T19:34:36.008Z,177.62
2019-03-20T19:37:11.837Z,134.55
2019-03-20T19:39:47.639Z,226.62
2019-03-20T19:42:23.495Z,760.83
2019-03-20T19:44:59.866Z,620.67
2019-03-20T19:47:36.134Z,492.85
2019-03-20T19:50:22.533Z,726.63
2019-03-20T19:52:58.337Z,710.70
2019-03-20T19:55:34.608Z,311.18
2019-03-20T19:58:10.455Z,247.78
2019-03-20T20:00:46.299Z,200.75
2019-03-20T20:03:22.269Z,242.50
2019-03-20T20:05:58.129Z,177.65
2019-03-20T20:08:34.790Z,191.18
2019-03-20T20:11:11.927Z,191.37
2019-03-20T20:13:47.733Z,183.03
2019-03-20T20:16:23.585Z,224.65
2019-03-20T20:18:59.427Z,252.72
2019-03-20T20:21:35.391Z,143.17
2019-03-20T20:24:11.254Z,129.60
2019-03-20T20:26:47.093Z,109.42
2019-03-20T20:29:23.151Z,98.03
2019-03-20T20:31:59.276Z,81.97
2019-03-20T20:34:35.078Z,67.53
2019-03-20T20:37:10.933Z,104.95
2019-03-20T20:39:46.874Z,90.00
2019-03-20T20:42:22.738Z,118.10
2019-03-20T20:45:00.078Z,93.47
2019-03-20T20:47:36.078Z,115.10
2019-03-20T20:50:17.135Z,135.47
2019-03-20T20:52:52.916Z,142.45
2019-03-20T20:55:28.880Z,208.60
2019-03-20T20:58:04.998Z,218.20
2019-03-20T21:00:41.197Z,150.10
2019-03-20T21:03:17.048Z,124.25
2019-03-20T21:05:53.153Z,124.87
2019-03-20T21:08:29.065Z,141.15
2019-03-20T21:11:04.911Z,145.72
2019-03-20T21:13:41.051Z,124.27
2019-03-20T21:16:16.932Z,109.20
2019-03-20T21:19:22.121Z,104.30
2019-03-20T21:22:28.900Z,103.80
2019-03-20T21:25:05.623Z,111.75
2019-03-20T21:28:19.406Z,108.63
2019-03-20T21:31:00.959Z,105.80
2019-03-20T21:33:43.143Z,99.17
2019-03-20T21:36:33.991Z,101.78
2019-03-20T21:39:09.822Z,100.12
2019-03-20T21:42:07.368Z,96.05
2019-03-20T21:45:07.599Z,101.75
2019-03-20T21:47:43.467Z,102.53
2019-03-20T21:50:22.749Z,96.12
2019-03-20T21:52:58.537Z,96.78
2019-03-20T21:56:10.536Z,110.40
2019-03-20T21:58:49.469Z,98.65
2019-03-20T22:02:00.762Z,96.42
2019-03-20T22:07:13.077Z,108.30
2019-03-20T22:09:54.965Z,109.45
2019-03-20T22:12:39.624Z,93.15
2019-03-20T22:15:46.060Z,92.25
2019-03-20T22:18:43.249Z,99.67
2019-03-20T22:21:47.278Z,86.12
2019-03-20T22:24:27.216Z,92.22
2019-03-20T22:27:27.325Z,100.42
2019-03-20T22:30:03.196Z,97.78
2019-03-20T22:32:54.103Z,91.05
2019-03-20T22:35:41.936Z,90.10
2019-03-20T22:38:20.774Z,95.40
2019-03-20T22:41:14.970Z,96.02
2019-03-20T22:43:56.943Z,107.22
2019-03-20T22:46:51.184Z,112.97
2019-03-20T22:49:44.999Z,109.97
2019-03-20T22:52:26.501Z,100.33
2019-03-20T22:55:33.998Z,108.57
2019-03-20T22:58:21.847Z,94.95
2019-03-20T23:01:01.587Z,91.40
2019-03-20T23:03:41.925Z,92.85
2019-03-20T23:06:17.817Z,86.82
2019-03-20T23:08:53.625Z,94.32
2019-03-20T23:11:29.478Z,91.17
2019-03-20T23:14:05.793Z,96.37
2019-03-20T23:16:41.613Z,92.12
2019-03-20T23:19:18.128Z,92.90
2019-03-20T23:21:54.037Z,97.47
2019-03-20T23:24:30.552Z,98.30
2019-03-20T23:27:15.265Z,104.50
2019-03-20T23:29:51.125Z,110.03
2019-03-20T23:32:26.964Z,107.20
2019-03-20T23:35:02.821Z,98.40
2019-03-20T23:37:39.801Z,96.05
2019-03-20T23:40:16.624Z,107.97
2019-03-20T23:42:55.705Z,96.10
2019-03-20T23:45:31.570Z,97.75
2019-03-20T23:48:25.755Z,88.70
2019-03-20T23:51:08.262Z,87.42
2019-03-20T23:53:46.788Z,83.97
2019-03-20T23:56:23.558Z,84.40
2019-03-20T23:58:59.400Z,90.62
